Terminal Aerodrome Forecast
Issued by NWS

Home | Current Version | Previous Version | Text Only | Print | Product List | Glossary On
Versions: 1 2 3 4 5 6 7 8 9 10 11 12 13 14 15 16 17 18 19
000
FTUS43 KJKL 051129
TAFSME
TAF
KSME 051129Z 0512/0612 02010G17KT 5SM -SN BKN014 OVC035
     FM051500 05008KT 2SM -SN BR OVC010
     FM052000 05006KT P6SM BKN020
     FM060300 05005KT P6SM SCT025=

USA.gov is the U.S. government's official web portal to all federal, state and local government web resources and services.